createdAt,value
2022-09-25T00:00:01.414Z,99.90
2022-09-25T00:02:29.666Z,99.90
2022-09-25T00:04:57.843Z,99.90
2022-09-25T00:07:26.338Z,99.90
2022-09-25T00:09:54.693Z,99.90
2022-09-25T00:12:24.296Z,99.90
2022-09-25T00:14:52.903Z,99.90
2022-09-25T00:17:21.112Z,79.70
2022-09-25T00:19:50.934Z,34.20
2022-09-25T00:22:19.330Z,35.30
2022-09-25T00:24:47.527Z,99.90
2022-09-25T00:27:16.658Z,99.90
2022-09-25T00:29:47.386Z,82.70
2022-09-25T00:32:16.508Z,91.90
2022-09-25T00:34:44.690Z,99.90
2022-09-25T00:37:13.161Z,99.90
2022-09-25T00:39:41.670Z,99.90
2022-09-25T00:42:13.961Z,99.90
2022-09-25T00:45:01.248Z,99.90
2022-09-25T00:47:38.269Z,99.90
2022-09-25T00:50:17.883Z,99.90
2022-09-25T00:52:46.935Z,99.90
2022-09-25T00:55:15.831Z,99.90
2022-09-25T00:57:48.448Z,99.90
2022-09-25T01:00:18.540Z,99.90
2022-09-25T01:02:53.459Z,99.90
2022-09-25T01:05:25.867Z,99.90
2022-09-25T01:07:54.954Z,99.90
2022-09-25T01:10:23.916Z,99.90
2022-09-25T01:12:53.466Z,99.90
2022-09-25T01:15:28.507Z,94.40
2022-09-25T01:18:06.768Z,55.30
2022-09-25T01:20:56.348Z,58.00
2022-09-25T01:23:41.799Z,99.90
2022-09-25T01:26:26.947Z,99.90
2022-09-25T01:29:07.922Z,99.90
2022-09-25T01:31:42.911Z,27.80
2022-09-25T01:34:20.122Z,99.90
2022-09-25T01:36:54.579Z,59.60
2022-09-25T01:39:29.368Z,99.90
2022-09-25T01:42:04.378Z,99.90
2022-09-25T01:44:37.838Z,90.80
2022-09-25T01:47:10.505Z,81.20
2022-09-25T01:49:43.737Z,99.90
2022-09-25T01:52:16.034Z,77.90
2022-09-25T01:54:47.205Z,84.60
2022-09-25T01:57:19.715Z,99.90
2022-09-25T01:59:55.371Z,23.60
2022-09-25T02:02:29.500Z,99.90
2022-09-25T02:05:00.808Z,44.70
2022-09-25T02:07:36.534Z,99.90
2022-09-25T02:10:10.036Z,99.90
2022-09-25T02:12:41.933Z,23.20
2022-09-25T02:15:16.348Z,99.30
2022-09-25T02:18:07.690Z,17.80
2022-09-25T02:20:41.928Z,99.90
2022-09-25T02:23:18.805Z,99.90
2022-09-25T02:25:51.047Z,33.00
2022-09-25T02:28:19.363Z,99.90
2022-09-25T02:30:50.466Z,99.30
2022-09-25T02:33:18.827Z,99.90
2022-09-25T02:35:47.002Z,45.90
2022-09-25T02:38:17.191Z,53.60
2022-09-25T02:40:52.003Z,25.50
2022-09-25T02:43:33.335Z,59.20
2022-09-25T02:46:14.223Z,73.60
2022-09-25T02:48:49.395Z,99.90
2022-09-25T02:51:24.910Z,39.00
2022-09-25T02:54:01.489Z,99.90
2022-09-25T02:56:34.229Z,99.90
2022-09-25T02:59:06.779Z,99.90
2022-09-25T03:01:39.817Z,28.90
2022-09-25T03:04:08.897Z,27.00
2022-09-25T03:06:38.687Z,96.60
2022-09-25T03:09:08.926Z,54.90
2022-09-25T03:11:43.690Z,42.20
2022-09-25T03:14:12.343Z,99.90
2022-09-25T03:16:47.608Z,72.80
2022-09-25T03:19:16.116Z,93.10
2022-09-25T03:21:44.325Z,99.90
2022-09-25T03:24:12.514Z,93.40
2022-09-25T03:26:41.610Z,99.90
2022-09-25T03:29:10.194Z,94.10
2022-09-25T03:31:38.424Z,34.40
2022-09-25T03:34:08.052Z,88.70
2022-09-25T03:36:36.804Z,14.70
2022-09-25T03:39:06.114Z,24.90
2022-09-25T03:41:35.734Z,23.60
2022-09-25T03:44:04.974Z,29.20
2022-09-25T03:46:35.312Z,99.90
2022-09-25T03:49:05.208Z,23.60
2022-09-25T03:51:35.245Z,68.50
2022-09-25T03:54:04.114Z,93.20
2022-09-25T03:56:32.733Z,99.90
2022-09-25T03:59:00.960Z,32.00
2022-09-25T04:01:30.119Z,24.00
2022-09-25T04:04:03.337Z,19.20
2022-09-25T04:06:31.747Z,23.10
2022-09-25T04:09:01.262Z,7.80
2022-09-25T04:11:29.446Z,14.40
2022-09-25T04:13:58.131Z,13.10
2022-09-25T04:16:27.457Z,18.30
2022-09-25T04:18:55.815Z,10.90
2022-09-25T04:21:24.389Z,9.50
2022-09-25T04:24:06.419Z,8.20
2022-09-25T04:26:36.480Z,14.00
2022-09-25T04:29:04.840Z,8.40
2022-09-25T04:31:33.745Z,6.40
2022-09-25T04:34:01.159Z,11.50
2022-09-25T04:36:29.309Z,13.30
2022-09-25T04:38:57.556Z,10.40
2022-09-25T04:41:25.715Z,7.20
2022-09-25T04:43:55.213Z,5.70
2022-09-25T04:46:23.356Z,7.80
2022-09-25T04:48:52.076Z,9.60
2022-09-25T04:51:20.468Z,21.80
2022-09-25T04:53:48.667Z,17.60
2022-09-25T04:56:17.209Z,15.10
2022-09-25T04:58:47.399Z,12.10
2022-09-25T05:01:19.065Z,10.50
2022-09-25T05:03:50.383Z,15.10
2022-09-25T05:06:18.735Z,12.30
2022-09-25T05:08:49.361Z,14.30
2022-09-25T05:11:17.584Z,11.40
2022-09-25T05:13:46.764Z,24.40
2022-09-25T05:16:16.575Z,21.40
2022-09-25T05:18:44.782Z,58.50
2022-09-25T05:21:13.010Z,56.40
2022-09-25T05:23:41.111Z,27.10
2022-09-25T05:26:11.059Z,26.30
2022-09-25T05:28:39.408Z,39.70
2022-09-25T05:31:08.088Z,34.80
2022-09-25T05:33:37.816Z,56.60
2022-09-25T05:36:07.231Z,20.20
2022-09-25T05:38:36.650Z,25.70
2022-09-25T05:41:05.883Z,44.50
2022-09-25T05:43:35.362Z,24.90
2022-09-25T05:46:03.597Z,22.30
2022-09-25T05:48:31.851Z,26.60
2022-09-25T05:51:01.431Z,16.80
2022-09-25T05:53:31.014Z,16.20
2022-09-25T05:56:00.648Z,19.40
2022-09-25T05:58:30.599Z,40.20
2022-09-25T06:01:02.212Z,27.10
2022-09-25T06:03:30.698Z,26.00
2022-09-25T06:06:00.865Z,37.80
2022-09-25T06:08:31.292Z,34.20
2022-09-25T06:11:00.832Z,26.90
2022-09-25T06:13:32.021Z,25.80
2022-09-25T06:16:00.494Z,28.10
2022-09-25T06:18:29.075Z,23.60
2022-09-25T06:21:03.980Z,46.00
2022-09-25T06:23:32.577Z,29.90
2022-09-25T06:26:04.842Z,43.90
2022-09-25T06:28:33.192Z,39.30
2022-09-25T06:31:02.335Z,34.70
2022-09-25T06:33:30.654Z,45.50
2022-09-25T06:35:59.017Z,29.40
2022-09-25T06:38:28.599Z,25.60
2022-09-25T06:40:59.897Z,30.00
2022-09-25T06:43:29.556Z,30.60
2022-09-25T06:46:03.453Z,27.60
2022-09-25T06:48:32.463Z,40.00
2022-09-25T06:51:02.334Z,32.20
2022-09-25T06:53:32.039Z,44.90
2022-09-25T06:56:01.024Z,42.70
2022-09-25T06:58:30.636Z,93.90
2022-09-25T07:00:59.215Z,98.00
2022-09-25T07:03:44.684Z,36.00
2022-09-25T07:06:14.933Z,90.30
2022-09-25T07:08:45.264Z,81.50
2022-09-25T07:11:15.554Z,68.90
2022-09-25T07:13:43.955Z,61.30
2022-09-25T07:16:15.038Z,73.90
2022-09-25T07:18:43.809Z,55.40
2022-09-25T07:21:14.249Z,89.60
2022-09-25T07:23:44.136Z,99.90
2022-09-25T07:26:14.102Z,99.90
2022-09-25T07:28:44.209Z,99.90
2022-09-25T07:31:15.068Z,71.20
2022-09-25T07:33:43.462Z,99.90
2022-09-25T07:36:12.154Z,63.40
2022-09-25T07:38:40.480Z,73.00
2022-09-25T07:41:13.584Z,26.20
2022-09-25T07:43:43.686Z,27.70
2022-09-25T07:46:12.544Z,38.40
2022-09-25T07:48:41.008Z,89.30
2022-09-25T07:51:11.300Z,34.40
2022-09-25T07:53:39.806Z,29.70
2022-09-25T07:56:10.330Z,31.90
2022-09-25T07:58:38.948Z,26.90
2022-09-25T08:01:08.950Z,30.00
2022-09-25T08:03:37.258Z,27.10
2022-09-25T08:06:09.623Z,24.30
2022-09-25T08:08:37.962Z,42.90
2022-09-25T08:11:08.194Z,30.50
2022-09-25T08:13:38.556Z,26.60
2022-09-25T08:16:07.876Z,63.70
2022-09-25T08:18:36.115Z,45.00
2022-09-25T08:21:04.846Z,54.70
2022-09-25T08:23:33.717Z,29.80
2022-09-25T08:26:02.688Z,32.40
2022-09-25T08:28:30.869Z,32.60
2022-09-25T08:31:02.098Z,32.20
2022-09-25T08:33:30.231Z,29.90
2022-09-25T08:36:00.414Z,29.60
2022-09-25T08:38:29.312Z,31.50
2022-09-25T08:41:00.633Z,35.40
2022-09-25T08:43:29.615Z,36.60
2022-09-25T08:46:18.822Z,34.70
2022-09-25T08:49:04.783Z,55.00
2022-09-25T08:51:35.115Z,42.90
2022-09-25T08:54:05.796Z,44.40
2022-09-25T08:56:36.467Z,41.10
2022-09-25T08:59:09.893Z,44.90
2022-09-25T09:01:53.333Z,33.90
2022-09-25T09:04:27.785Z,42.00
2022-09-25T09:07:25.058Z,34.70
2022-09-25T09:09:54.803Z,41.00
2022-09-25T09:12:31.768Z,39.90
2022-09-25T09:15:19.533Z,37.10
2022-09-25T09:17:49.109Z,45.30
2022-09-25T09:20:19.876Z,44.80
2022-09-25T09:22:53.144Z,56.00
2022-09-25T09:25:29.304Z,42.40
2022-09-25T09:28:30.303Z,36.80
2022-09-25T09:31:09.582Z,50.50
2022-09-25T09:33:52.097Z,68.40
2022-09-25T09:36:28.710Z,82.70
2022-09-25T09:39:04.577Z,74.30
2022-09-25T09:41:47.852Z,54.50
2022-09-25T09:44:27.237Z,54.00
2022-09-25T09:47:07.177Z,65.90
2022-09-25T09:49:41.934Z,53.00
2022-09-25T09:52:14.606Z,53.50
2022-09-25T09:54:49.219Z,53.30
2022-09-25T09:57:23.064Z,60.80
2022-09-25T09:59:55.191Z,50.60
2022-09-25T10:02:33.894Z,52.50
2022-09-25T10:05:08.901Z,55.00
2022-09-25T10:07:39.955Z,45.00
2022-09-25T10:10:15.150Z,47.20
2022-09-25T10:12:47.773Z,78.60
2022-09-25T10:15:20.769Z,53.40
2022-09-25T10:17:49.664Z,55.30
2022-09-25T10:20:22.070Z,67.20
2022-09-25T10:22:56.510Z,53.30
2022-09-25T10:25:38.469Z,45.30
2022-09-25T10:28:29.305Z,62.70
2022-09-25T10:30:59.063Z,52.20
2022-09-25T10:33:29.320Z,99.90
2022-09-25T10:35:59.212Z,52.80
2022-09-25T10:38:38.931Z,99.90
2022-09-25T10:41:10.498Z,65.80
2022-09-25T10:43:52.310Z,70.80
2022-09-25T10:46:43.586Z,71.60
2022-09-25T10:49:46.309Z,86.50
2022-09-25T10:52:19.685Z,94.60
2022-09-25T10:54:47.902Z,57.30
2022-09-25T10:57:18.697Z,66.50
2022-09-25T10:59:50.221Z,59.20
2022-09-25T11:02:39.172Z,65.30
2022-09-25T11:05:15.732Z,69.70
2022-09-25T11:07:52.352Z,53.90
2022-09-25T11:10:22.224Z,78.90
2022-09-25T11:12:52.146Z,68.00
2022-09-25T11:15:23.540Z,67.00
2022-09-25T11:17:53.830Z,72.30
2022-09-25T11:20:29.716Z,72.20
2022-09-25T11:23:20.206Z,89.90
2022-09-25T11:25:55.083Z,99.90
2022-09-25T11:28:31.538Z,91.70
2022-09-25T11:31:04.207Z,82.30
2022-09-25T11:33:43.366Z,96.00
2022-09-25T11:36:18.408Z,99.90
2022-09-25T11:39:06.988Z,78.20
2022-09-25T11:41:42.117Z,95.00
2022-09-25T11:44:18.811Z,99.00
2022-09-25T11:46:56.668Z,72.10
2022-09-25T11:49:27.967Z,76.40
2022-09-25T11:52:21.377Z,65.00
2022-09-25T11:55:34.719Z,78.40
2022-09-25T11:58:15.559Z,73.40
2022-09-25T12:00:49.560Z,69.20
2022-09-25T12:03:33.152Z,88.90
2022-09-25T12:06:21.661Z,94.70
2022-09-25T12:09:01.949Z,82.10
2022-09-25T12:11:43.263Z,99.90
2022-09-25T12:14:19.351Z,93.10
2022-09-25T12:16:52.597Z,93.40
2022-09-25T12:19:35.257Z,99.90
2022-09-25T12:22:09.078Z,99.90
2022-09-25T12:24:53.288Z,99.90
2022-09-25T12:27:30.367Z,99.90
2022-09-25T12:30:12.029Z,99.90
2022-09-25T12:32:56.451Z,99.90
2022-09-25T12:35:39.173Z,99.90
2022-09-25T12:38:17.818Z,99.90
2022-09-25T12:40:51.040Z,99.90
2022-09-25T12:43:27.544Z,99.90
2022-09-25T12:46:01.713Z,99.90
2022-09-25T12:48:37.413Z,99.90
2022-09-25T12:51:14.285Z,99.90
2022-09-25T12:53:46.591Z,99.90
2022-09-25T12:56:18.434Z,99.90
2022-09-25T12:59:13.590Z,99.90
2022-09-25T13:01:48.715Z,99.90
2022-09-25T13:04:39.104Z,99.90
2022-09-25T13:07:16.630Z,99.90
2022-09-25T13:09:47.528Z,96.00
2022-09-25T13:12:25.233Z,97.90
2022-09-25T13:14:58.115Z,96.90
2022-09-25T13:17:26.333Z,99.90
2022-09-25T13:19:54.560Z,99.90
2022-09-25T13:22:25.509Z,99.90
2022-09-25T13:25:02.993Z,99.90
2022-09-25T13:27:42.583Z,99.90
2022-09-25T13:30:22.075Z,99.90
2022-09-25T13:32:51.873Z,99.90
2022-09-25T13:35:22.961Z,99.90
2022-09-25T13:37:53.683Z,99.90
2022-09-25T13:40:42.874Z,99.90
2022-09-25T13:43:22.851Z,99.90
2022-09-25T13:46:24.960Z,99.90
2022-09-25T13:48:55.519Z,99.90
2022-09-25T13:51:37.206Z,99.90
2022-09-25T13:54:24.772Z,99.90
2022-09-25T13:56:55.320Z,98.60
2022-09-25T13:59:38.546Z,98.00
2022-09-25T14:02:47.530Z,99.90
2022-09-25T14:05:21.630Z,99.90
2022-09-25T14:07:54.934Z,99.90
2022-09-25T14:10:24.401Z,99.90
2022-09-25T14:12:54.214Z,99.90
2022-09-25T14:15:28.126Z,99.90
2022-09-25T14:17:58.996Z,99.90
2022-09-25T14:20:38.374Z,99.90
2022-09-25T14:23:15.550Z,99.90
2022-09-25T14:25:46.857Z,99.90
2022-09-25T14:28:24.470Z,99.90
2022-09-25T14:31:06.925Z,99.90
2022-09-25T14:34:11.547Z,99.90
2022-09-25T14:36:53.790Z,99.90
2022-09-25T14:39:46.567Z,99.90
2022-09-25T14:42:54.095Z,99.90
2022-09-25T14:45:55.952Z,99.90
2022-09-25T14:48:28.486Z,99.90
2022-09-25T14:50:59.620Z,99.90
2022-09-25T14:53:33.075Z,99.90
2022-09-25T14:56:03.308Z,99.90
2022-09-25T14:58:33.916Z,99.90
2022-09-25T15:01:11.881Z,99.90
2022-09-25T15:03:44.433Z,99.90
2022-09-25T15:06:16.344Z,99.90
2022-09-25T15:08:47.643Z,99.90
2022-09-25T15:11:18.021Z,99.90
2022-09-25T15:13:46.537Z,99.90
2022-09-25T15:16:36.277Z,99.90
2022-09-25T15:19:11.699Z,99.90
2022-09-25T15:21:43.673Z,99.90
2022-09-25T15:24:16.961Z,99.90
2022-09-25T15:26:50.390Z,99.90
2022-09-25T15:29:21.548Z,99.90
2022-09-25T15:31:52.158Z,99.90
2022-09-25T15:34:25.034Z,99.90
2022-09-25T15:36:53.649Z,99.90
2022-09-25T15:39:26.276Z,99.90
2022-09-25T15:41:55.442Z,99.90
2022-09-25T15:44:25.057Z,99.90
2022-09-25T15:46:54.925Z,99.90
2022-09-25T15:49:30.504Z,99.90
2022-09-25T15:52:01.446Z,99.90
2022-09-25T15:54:37.697Z,99.90
2022-09-25T15:57:11.264Z,99.90
2022-09-25T16:00:04.243Z,99.90
2022-09-25T16:02:52.563Z,99.90
2022-09-25T16:05:26.066Z,99.90
2022-09-25T16:07:56.116Z,99.90
2022-09-25T16:10:33.638Z,99.90
2022-09-25T16:13:03.161Z,99.90
2022-09-25T16:15:48.408Z,99.90
2022-09-25T16:18:39.501Z,99.90
2022-09-25T16:21:23.829Z,99.90
2022-09-25T16:23:57.794Z,99.90
2022-09-25T16:26:32.410Z,99.90
2022-09-25T16:29:09.026Z,99.90
2022-09-25T16:31:37.475Z,99.90
2022-09-25T16:34:08.611Z,99.90
2022-09-25T16:36:42.279Z,99.90
2022-09-25T16:39:28.281Z,99.90
2022-09-25T16:42:00.047Z,99.90
2022-09-25T16:44:46.848Z,99.90
2022-09-25T16:47:18.845Z,99.90
2022-09-25T16:49:47.549Z,99.90
2022-09-25T16:52:20.428Z,99.90
2022-09-25T16:54:53.452Z,99.90
2022-09-25T16:57:24.391Z,99.90
2022-09-25T16:59:53.701Z,99.90
2022-09-25T17:02:33.281Z,99.90
2022-09-25T17:05:04.043Z,99.90
2022-09-25T17:07:32.394Z,99.90
2022-09-25T17:10:01.515Z,99.90
2022-09-25T17:12:32.536Z,99.90
2022-09-25T17:15:01.066Z,99.90
2022-09-25T17:17:31.063Z,99.90
2022-09-25T17:19:59.400Z,99.90
2022-09-25T17:22:30.350Z,99.90
2022-09-25T17:25:02.969Z,99.90
2022-09-25T17:27:32.668Z,99.90
2022-09-25T17:30:01.335Z,99.90
2022-09-25T17:32:31.358Z,99.90
2022-09-25T17:35:02.197Z,99.90
2022-09-25T17:37:30.308Z,99.90
2022-09-25T17:39:59.191Z,99.90
2022-09-25T17:42:27.806Z,99.90
2022-09-25T17:44:57.586Z,99.90
2022-09-25T17:47:27.899Z,99.90
2022-09-25T17:49:57.936Z,99.90
2022-09-25T17:52:27.057Z,99.90
2022-09-25T17:54:56.024Z,99.90
2022-09-25T17:57:29.142Z,99.90
2022-09-25T18:00:01.923Z,99.90
2022-09-25T18:02:30.946Z,99.90
2022-09-25T18:04:59.775Z,99.90
2022-09-25T18:07:33.383Z,99.90
2022-09-25T18:10:02.247Z,99.90
2022-09-25T18:12:30.480Z,99.90
2022-09-25T18:15:00.147Z,99.90
2022-09-25T18:17:28.275Z,99.90
2022-09-25T18:20:13.773Z,99.90
2022-09-25T18:22:41.874Z,99.90
2022-09-25T18:25:10.786Z,99.90
2022-09-25T18:27:42.786Z,99.90
2022-09-25T18:30:18.750Z,99.90
2022-09-25T18:32:46.864Z,99.90
2022-09-25T18:35:15.737Z,99.90
2022-09-25T18:37:47.088Z,99.90
2022-09-25T18:40:18.597Z,99.90
2022-09-25T18:42:48.483Z,99.90
2022-09-25T18:45:19.954Z,99.90
2022-09-25T18:47:48.108Z,99.90
2022-09-25T18:50:20.758Z,99.90
2022-09-25T18:52:49.967Z,99.90
2022-09-25T18:55:23.644Z,99.90
2022-09-25T18:57:56.800Z,99.90
2022-09-25T19:00:27.655Z,99.90
2022-09-25T19:02:59.713Z,99.90
2022-09-25T19:05:31.521Z,99.90
2022-09-25T19:08:05.194Z,99.90
2022-09-25T19:10:36.557Z,99.90
2022-09-25T19:13:07.026Z,99.90
2022-09-25T19:15:36.624Z,99.90
2022-09-25T19:18:06.543Z,99.90
2022-09-25T19:20:35.398Z,99.90
2022-09-25T19:23:04.192Z,99.90
2022-09-25T19:25:33.839Z,99.90
2022-09-25T19:28:04.659Z,99.90
2022-09-25T19:30:35.737Z,99.90
2022-09-25T19:33:07.069Z,99.90
2022-09-25T19:35:38.277Z,99.90
2022-09-25T19:38:12.912Z,99.90
2022-09-25T19:40:47.177Z,99.90
2022-09-25T19:43:17.182Z,99.90
2022-09-25T19:45:50.908Z,99.90
2022-09-25T19:48:24.170Z,99.90
2022-09-25T19:50:56.421Z,99.90
2022-09-25T19:53:25.931Z,99.90
2022-09-25T19:55:55.499Z,99.90
2022-09-25T19:58:25.748Z,99.90
2022-09-25T20:00:56.924Z,99.90
2022-09-25T20:03:33.112Z,99.90
2022-09-25T20:06:04.539Z,99.90
2022-09-25T20:08:34.647Z,99.90
2022-09-25T20:11:14.963Z,99.90
2022-09-25T20:13:48.279Z,99.90
2022-09-25T20:16:19.822Z,99.90
2022-09-25T20:18:52.975Z,99.90
2022-09-25T20:21:22.312Z,99.90
2022-09-25T20:23:53.461Z,99.90
2022-09-25T20:26:26.030Z,99.90
2022-09-25T20:28:58.819Z,99.90
2022-09-25T20:31:30.423Z,99.90
2022-09-25T20:34:01.095Z,99.90
2022-09-25T20:36:32.165Z,99.90
2022-09-25T20:39:02.358Z,99.90
2022-09-25T20:41:31.636Z,99.90
2022-09-25T20:44:01.246Z,99.90
2022-09-25T20:46:30.039Z,99.90
2022-09-25T20:49:03.656Z,99.90
2022-09-25T20:51:38.610Z,99.90
2022-09-25T20:54:11.443Z,99.90
2022-09-25T20:56:45.242Z,99.90
2022-09-25T20:59:17.858Z,99.90
2022-09-25T21:01:49.346Z,99.90
2022-09-25T21:04:20.522Z,99.90
2022-09-25T21:06:50.267Z,99.90
2022-09-25T21:09:24.299Z,99.90
2022-09-25T21:11:57.417Z,99.90
2022-09-25T21:14:29.637Z,99.90
2022-09-25T21:16:59.120Z,99.90
2022-09-25T21:19:33.416Z,99.90
2022-09-25T21:22:05.477Z,99.90
2022-09-25T21:24:35.167Z,99.90
2022-09-25T21:27:03.452Z,99.90
2022-09-25T21:29:34.996Z,99.90
2022-09-25T21:32:04.655Z,99.90
2022-09-25T21:34:36.149Z,99.90
2022-09-25T21:37:05.577Z,99.90
2022-09-25T21:39:34.463Z,99.90
2022-09-25T21:42:04.848Z,99.90
2022-09-25T21:44:33.589Z,99.90
2022-09-25T21:47:02.634Z,99.90
2022-09-25T21:49:32.878Z,99.90
2022-09-25T21:52:04.167Z,99.90
2022-09-25T21:54:32.499Z,99.90
2022-09-25T21:57:00.632Z,99.90
2022-09-25T21:59:28.776Z,99.90
2022-09-25T22:01:58.532Z,99.90
2022-09-25T22:04:26.701Z,99.90
2022-09-25T22:06:55.659Z,99.90
2022-09-25T22:09:26.580Z,99.90
2022-09-25T22:11:54.811Z,99.90
2022-09-25T22:14:23.363Z,99.90
2022-09-25T22:16:53.326Z,99.90
2022-09-25T22:19:23.345Z,99.90
2022-09-25T22:21:54.146Z,99.90
2022-09-25T22:24:24.061Z,99.90
2022-09-25T22:26:53.748Z,99.90
2022-09-25T22:29:22.373Z,99.90
2022-09-25T22:31:50.943Z,99.90
2022-09-25T22:34:22.127Z,99.90
2022-09-25T22:36:56.207Z,99.90
2022-09-25T22:39:29.478Z,99.90
2022-09-25T22:41:58.254Z,99.90
2022-09-25T22:44:26.988Z,99.90
2022-09-25T22:46:55.486Z,99.90
2022-09-25T22:49:24.135Z,99.90
2022-09-25T22:51:52.237Z,99.90
2022-09-25T22:54:20.618Z,99.90
2022-09-25T22:56:50.201Z,99.90
2022-09-25T22:59:20.724Z,99.90
2022-09-25T23:01:51.262Z,99.90
2022-09-25T23:04:20.722Z,99.90
2022-09-25T23:06:49.136Z,99.90
2022-09-25T23:09:18.968Z,99.90
2022-09-25T23:11:47.384Z,99.90
2022-09-25T23:14:20.040Z,99.90
2022-09-25T23:16:50.272Z,99.90
2022-09-25T23:19:19.542Z,99.90
2022-09-25T23:21:48.293Z,99.90
2022-09-25T23:24:18.280Z,99.90
2022-09-25T23:26:47.352Z,99.90
2022-09-25T23:29:18.828Z,99.90
2022-09-25T23:31:47.951Z,99.90
2022-09-25T23:34:16.446Z,99.90
2022-09-25T23:36:44.746Z,99.90
2022-09-25T23:39:17.653Z,99.90
2022-09-25T23:41:45.827Z,99.90
2022-09-25T23:44:14.067Z,99.90
2022-09-25T23:46:44.519Z,99.90
2022-09-25T23:49:13.282Z,99.90
2022-09-25T23:51:41.640Z,99.90
2022-09-25T23:54:10.965Z,99.90
2022-09-25T23:56:40.441Z,99.90
2022-09-25T23:59:10.456Z,99.90
